Time,TemperatureF,DewpointF,PressureIn,WindDirection,WindDirectionDegrees,WindSpeedMPH,WindSpeedGustMPH,Humidity,HourlyPrecipIn,Conditions,Clouds,dailyrainin,SolarRadiationWatts/m^2,SoftwareType,DateUTC
2013-01-15 00:02:00,15.0,12.0,-100.00,NNE,19,1.0,3.0,89,0.00,,,0.00,0.000000,,2013-01-15 07:02:00,
2013-01-15 00:12:00,15.0,12.0,-100.00,NNE,19,1.0,3.0,89,0.00,,,0.00,0.000000,,2013-01-15 07:12:00,
2013-01-15 00:33:00,15.0,12.0,-100.00,East,100,1.0,3.0,88,0.00,,,0.00,0.000000,,2013-01-15 07:33:00,
2013-01-15 00:43:00,15.0,12.0,-100.00,East,100,1.0,3.0,88,0.00,,,0.00,0.000000,,2013-01-15 07:43:00,
2013-01-15 00:52:00,15.0,12.0,-100.00,East,100,1.0,3.0,88,0.00,,,0.00,0.000000,,2013-01-15 07:52:00,
2013-01-15 01:02:00,15.0,12.0,-100.00,East,100,1.0,3.0,88,0.00,,,0.00,0.000000,,2013-01-15 08:02:00,
2013-01-15 01:12:00,15.0,12.0,-100.00,East,100,1.0,3.0,88,0.00,,,0.00,0.000000,,2013-01-15 08:12:00,
2013-01-15 01:43:00,15.0,12.0,-100.00,ESE,112,2.0,2.0,89,0.00,,,0.00,0.000000,,2013-01-15 08:43:00,
2013-01-15 01:53:00,15.0,12.0,-100.00,ESE,112,2.0,2.0,89,0.00,,,0.00,0.000000,,2013-01-15 08:53:00,
2013-01-15 02:02:00,15.0,12.0,-100.00,ESE,112,2.0,2.0,89,0.00,,,0.00,0.000000,,2013-01-15 09:02:00,
2013-01-15 02:11:00,15.0,12.0,-100.00,ESE,112,2.0,2.0,89,0.00,,,0.00,0.000000,,2013-01-15 09:11:00,
2013-01-15 02:42:00,15.0,12.0,-100.00,SE,132,1.0,4.0,88,0.00,,,0.00,0.000000,,2013-01-15 09:42:00,
2013-01-15 02:52:00,15.0,12.0,-100.00,SE,132,1.0,4.0,88,0.00,,,0.00,0.000000,,2013-01-15 09:52:00,
2013-01-15 03:02:00,15.0,12.0,-100.00,SE,132,1.0,4.0,88,0.00,,,0.00,0.000000,,2013-01-15 10:02:00,
2013-01-15 03:11:00,15.0,12.0,-100.00,SE,132,1.0,4.0,88,0.00,,,0.00,0.000000,,2013-01-15 10:11:00,
2013-01-15 03:33:00,15.0,12.0,-100.00,SE,131,0.0,3.0,88,0.00,,,0.00,0.000000,,2013-01-15 10:33:00,
2013-01-15 03:42:00,15.0,12.0,-100.00,SE,131,0.0,3.0,88,0.00,,,0.00,0.000000,,2013-01-15 10:42:00,
2013-01-15 03:52:00,15.0,12.0,-100.00,SE,131,0.0,3.0,88,0.00,,,0.00,0.000000,,2013-01-15 10:52:00,
2013-01-15 04:02:00,15.0,12.0,-100.00,SE,131,0.0,3.0,88,0.00,,,0.00,0.000000,,2013-01-15 11:02:00,
2013-01-15 04:12:00,15.0,12.0,-100.00,SE,131,0.0,3.0,88,0.00,,,0.00,0.000000,,2013-01-15 11:12:00,
2013-01-15 04:33:00,16.0,13.0,-100.00,NW,319,2.0,3.0,89,0.00,,,0.00,0.000000,,2013-01-15 11:33:00,
2013-01-15 04:43:00,16.0,13.0,-100.00,NW,319,2.0,3.0,89,0.00,,,0.00,0.000000,,2013-01-15 11:43:00,
2013-01-15 04:53:00,16.0,13.0,-100.00,NW,319,2.0,3.0,89,0.00,,,0.00,0.000000,,2013-01-15 11:53:00,
2013-01-15 05:02:00,16.0,13.0,-100.00,NW,319,2.0,3.0,89,0.00,,,0.00,0.000000,,2013-01-15 12:02:00,
2013-01-15 05:12:00,16.0,13.0,-100.00,NW,319,2.0,3.0,89,0.00,,,0.00,0.000000,,2013-01-15 12:12:00,
2013-01-15 05:33:00,16.0,13.0,-100.00,SE,128,1.0,3.0,89,0.00,,,0.00,0.000000,,2013-01-15 12:33:00,
2013-01-15 05:43:00,16.0,13.0,-100.00,SE,128,1.0,3.0,89,0.00,,,0.00,0.000000,,2013-01-15 12:43:00,
2013-01-15 05:53:00,16.0,13.0,-100.00,SE,128,1.0,3.0,89,0.00,,,0.00,0.000000,,2013-01-15 12:53:00,
2013-01-15 06:02:00,16.0,13.0,-100.00,SE,128,1.0,3.0,89,0.00,,,0.00,0.000000,,2013-01-15 13:02:00,
2013-01-15 06:12:00,16.0,13.0,-100.00,SE,128,1.0,3.0,89,0.00,,,0.00,0.000000,,2013-01-15 13:12:00,
2013-01-15 06:43:00,16.0,13.0,-100.00,NE,54,1.0,2.0,89,0.00,,,0.00,0.000000,,2013-01-15 13:43:00,
2013-01-15 06:53:00,16.0,13.0,-100.00,NE,54,1.0,2.0,89,0.00,,,0.00,0.000000,,2013-01-15 13:53:00,
2013-01-15 07:02:00,16.0,13.0,-100.00,NE,54,1.0,2.0,89,0.00,,,0.00,0.000000,,2013-01-15 14:02:00,
2013-01-15 07:12:00,16.0,13.0,-100.00,NE,54,1.0,2.0,89,0.00,,,0.00,0.000000,,2013-01-15 14:12:00,
2013-01-15 07:33:00,16.0,13.0,-100.00,NW,313,2.0,3.0,89,0.00,,,-99.99,0.000000,,2013-01-15 14:33:00,
2013-01-15 07:43:00,16.0,13.0,-100.00,NW,313,2.0,3.0,89,0.00,,,-99.99,0.000000,,2013-01-15 14:43:00,
2013-01-15 07:53:00,16.0,13.0,-100.00,NW,313,2.0,3.0,89,0.00,,,-99.99,0.000000,,2013-01-15 14:53:00,
2013-01-15 08:03:00,16.0,13.0,-100.00,NW,313,2.0,3.0,89,0.00,,,-99.99,0.000000,,2013-01-15 15:03:00,
2013-01-15 08:12:00,16.0,13.0,-100.00,NW,313,2.0,3.0,89,0.00,,,-99.99,0.000000,,2013-01-15 15:12:00,
2013-01-15 08:33:00,17.0,14.0,-100.00,NNE,17,1.0,2.0,89,0.00,,,0.00,0.000000,,2013-01-15 15:33:00,
2013-01-15 08:43:00,17.0,14.0,-100.00,NNE,17,1.0,2.0,89,0.00,,,0.00,0.000000,,2013-01-15 15:43:00,
2013-01-15 08:53:00,17.0,14.0,-100.00,NNE,17,1.0,2.0,89,0.00,,,0.00,0.000000,,2013-01-15 15:53:00,
2013-01-15 09:02:00,17.0,14.0,-100.00,NNE,17,1.0,2.0,89,0.00,,,0.00,0.000000,,2013-01-15 16:02:00,
2013-01-15 09:12:00,17.0,14.0,-100.00,NNE,17,1.0,2.0,89,0.00,,,0.00,0.000000,,2013-01-15 16:12:00,
2013-01-15 09:33:00,17.0,14.0,-100.00,NNW,346,2.0,2.0,89,0.00,,,0.00,1.000000,,2013-01-15 16:33:00,
2013-01-15 09:43:00,17.0,14.0,-100.00,NNW,346,2.0,2.0,89,0.00,,,0.00,1.000000,,2013-01-15 16:43:00,
2013-01-15 09:53:00,17.0,14.0,-100.00,NNW,346,2.0,2.0,89,0.00,,,0.00,1.000000,,2013-01-15 16:53:00,
2013-01-15 10:03:00,17.0,14.0,-100.00,NNW,346,2.0,2.0,89,0.00,,,0.00,1.000000,,2013-01-15 17:03:00,
2013-01-15 10:12:00,17.0,14.0,-100.00,NNW,346,2.0,2.0,89,0.00,,,0.00,1.000000,,2013-01-15 17:12:00,
2013-01-15 10:43:00,20.0,16.0,-100.00,East,93,1.0,3.0,85,0.00,,,0.00,6.000000,,2013-01-15 17:43:00,
2013-01-15 10:53:00,20.0,16.0,-100.00,East,93,1.0,3.0,85,0.00,,,0.00,6.000000,,2013-01-15 17:53:00,
2013-01-15 11:02:00,20.0,16.0,-100.00,East,93,1.0,3.0,85,0.00,,,0.00,6.000000,,2013-01-15 18:02:00,
2013-01-15 11:12:00,20.0,16.0,-100.00,East,93,1.0,3.0,85,0.00,,,0.00,6.000000,,2013-01-15 18:12:00,
2013-01-15 11:33:00,22.0,16.0,-100.00,South,186,1.0,3.0,78,0.00,,,-99.99,12.000000,,2013-01-15 18:33:00,
2013-01-15 11:43:00,22.0,16.0,-100.00,South,186,1.0,3.0,78,0.00,,,-99.99,12.000000,,2013-01-15 18:43:00,
2013-01-15 11:53:00,22.0,16.0,-100.00,South,186,1.0,3.0,78,0.00,,,-99.99,12.000000,,2013-01-15 18:53:00,
2013-01-15 12:03:00,22.0,16.0,-100.00,South,186,1.0,3.0,78,0.00,,,-99.99,12.000000,,2013-01-15 19:03:00,
2013-01-15 12:12:00,22.0,16.0,-100.00,South,186,1.0,3.0,78,0.00,,,-99.99,12.000000,,2013-01-15 19:12:00,
2013-01-15 12:43:00,22.0,16.0,-100.00,SE,132,1.0,4.0,78,0.00,,,0.00,13.000000,,2013-01-15 19:43:00,
2013-01-15 12:53:00,22.0,16.0,-100.00,SE,132,1.0,4.0,78,0.00,,,0.00,13.000000,,2013-01-15 19:53:00,
2013-01-15 13:03:00,22.0,16.0,-100.00,SE,132,1.0,4.0,78,0.00,,,0.00,13.000000,,2013-01-15 20:03:00,
2013-01-15 13:12:00,22.0,16.0,-100.00,SE,132,1.0,4.0,78,0.00,,,0.00,13.000000,,2013-01-15 20:12:00,
2013-01-15 13:33:00,24.0,18.0,-100.00,SE,133,1.0,4.0,76,0.00,,,0.00,17.000000,,2013-01-15 20:33:00,
2013-01-15 13:43:00,24.0,18.0,-100.00,SE,133,1.0,4.0,76,0.00,,,0.00,17.000000,,2013-01-15 20:43:00,
2013-01-15 13:53:00,24.0,18.0,-100.00,SE,133,1.0,4.0,76,0.00,,,0.00,17.000000,,2013-01-15 20:53:00,
2013-01-15 14:02:00,24.0,18.0,-100.00,SE,133,1.0,4.0,76,0.00,,,0.00,17.000000,,2013-01-15 21:02:00,
2013-01-15 14:12:00,24.0,18.0,-100.00,SE,133,1.0,4.0,76,0.00,,,0.00,17.000000,,2013-01-15 21:12:00,
2013-01-15 14:43:00,26.0,19.0,-100.00,SE,128,1.0,4.0,74,0.00,,,0.00,22.000000,,2013-01-15 21:43:00,
2013-01-15 14:53:00,26.0,19.0,-100.00,SE,128,1.0,4.0,74,0.00,,,0.00,22.000000,,2013-01-15 21:53:00,
2013-01-15 15:02:00,26.0,19.0,-100.00,SE,128,1.0,4.0,74,0.00,,,0.00,22.000000,,2013-01-15 22:02:00,
2013-01-15 15:12:00,26.0,19.0,-100.00,SE,128,1.0,4.0,74,0.00,,,0.00,22.000000,,2013-01-15 22:12:00,
2013-01-15 15:43:00,28.0,20.0,-100.00,South,173,2.0,4.0,70,0.00,,,0.00,25.000000,,2013-01-15 22:43:00,
2013-01-15 15:53:00,28.0,20.0,-100.00,South,173,2.0,4.0,70,0.00,,,0.00,25.000000,,2013-01-15 22:53:00,
2013-01-15 16:02:00,28.0,20.0,-100.00,South,173,2.0,4.0,70,0.00,,,0.00,25.000000,,2013-01-15 23:02:00,
2013-01-15 16:12:00,28.0,20.0,-100.00,South,173,2.0,4.0,70,0.00,,,0.00,25.000000,,2013-01-15 23:12:00,
2013-01-15 16:43:00,27.0,20.0,-100.00,SE,137,1.0,3.0,76,0.01,,,0.01,12.000000,,2013-01-15 23:43:00,
2013-01-15 16:53:00,27.0,20.0,-100.00,SE,137,1.0,3.0,76,0.01,,,0.01,12.000000,,2013-01-15 23:53:00,
2013-01-15 17:02:00,27.0,20.0,-100.00,SE,137,1.0,3.0,76,0.01,,,0.01,12.000000,,2013-01-16 00:02:00,
2013-01-15 17:12:00,27.0,20.0,-100.00,SE,137,1.0,3.0,76,0.01,,,0.01,12.000000,,2013-01-16 00:12:00,
2013-01-15 17:43:00,26.0,20.0,-100.00,SW,214,1.0,2.0,79,0.00,,,0.01,6.000000,,2013-01-16 00:43:00,
2013-01-15 17:53:00,26.0,20.0,-100.00,SW,214,1.0,2.0,79,0.00,,,0.01,6.000000,,2013-01-16 00:53:00,
2013-01-15 18:02:00,26.0,20.0,-100.00,SW,214,1.0,2.0,79,0.00,,,0.01,6.000000,,2013-01-16 01:02:00,
2013-01-15 18:12:00,26.0,20.0,-100.00,SW,214,1.0,2.0,79,0.00,,,0.01,6.000000,,2013-01-16 01:12:00,
2013-01-15 18:33:00,24.0,21.0,-100.00,SE,145,1.0,2.0,89,0.00,,,0.01,0.000000,,2013-01-16 01:33:00,
2013-01-15 18:43:00,24.0,21.0,-100.00,SE,145,1.0,2.0,89,0.00,,,0.01,0.000000,,2013-01-16 01:43:00,
2013-01-15 18:53:00,24.0,21.0,-100.00,SE,145,1.0,2.0,89,0.00,,,0.01,0.000000,,2013-01-16 01:53:00,
2013-01-15 19:02:00,24.0,21.0,-100.00,SE,145,1.0,2.0,89,0.00,,,0.01,0.000000,,2013-01-16 02:02:00,
2013-01-15 19:12:00,24.0,21.0,-100.00,SE,145,1.0,2.0,89,0.00,,,0.01,0.000000,,2013-01-16 02:12:00,
2013-01-15 19:43:00,20.0,17.0,-100.00,ENE,65,2.0,4.0,89,0.00,,,0.01,0.000000,,2013-01-16 02:43:00,
2013-01-15 19:53:00,20.0,17.0,-100.00,ENE,65,2.0,4.0,89,0.00,,,0.01,0.000000,,2013-01-16 02:53:00,
2013-01-15 20:02:00,20.0,17.0,-100.00,ENE,65,2.0,4.0,89,0.00,,,0.01,0.000000,,2013-01-16 03:02:00,
2013-01-15 20:11:00,20.0,17.0,-100.00,ENE,65,2.0,4.0,89,0.00,,,0.01,0.000000,,2013-01-16 03:11:00,
2013-01-15 20:33:00,14.0,12.0,-100.00,NNW,346,2.0,4.0,91,0.00,,,0.01,0.000000,,2013-01-16 03:33:00,
2013-01-15 20:43:00,14.0,12.0,-100.00,NNW,346,2.0,4.0,91,0.00,,,0.01,0.000000,,2013-01-16 03:43:00,
2013-01-15 20:53:00,14.0,12.0,-100.00,NNW,346,2.0,4.0,91,0.00,,,0.01,0.000000,,2013-01-16 03:53:00,
2013-01-15 21:02:00,14.0,12.0,-100.00,NNW,346,2.0,4.0,91,0.00,,,0.01,0.000000,,2013-01-16 04:02:00,
2013-01-15 21:12:00,14.0,12.0,-100.00,NNW,346,2.0,4.0,91,0.00,,,0.01,0.000000,,2013-01-16 04:12:00,
2013-01-15 21:33:00,11.0,8.0,-100.00,North,359,2.0,4.0,88,0.00,,,0.01,0.000000,,2013-01-16 04:33:00,
2013-01-15 21:42:00,11.0,8.0,-100.00,North,359,2.0,4.0,88,0.00,,,0.01,0.000000,,2013-01-16 04:42:00,
2013-01-15 21:52:00,11.0,8.0,-100.00,North,359,2.0,4.0,88,0.00,,,0.01,0.000000,,2013-01-16 04:52:00,
2013-01-15 22:03:00,11.0,8.0,-100.00,North,359,2.0,4.0,88,0.00,,,0.01,0.000000,,2013-01-16 05:03:00,
2013-01-15 22:12:00,11.0,8.0,-100.00,North,359,2.0,4.0,88,0.00,,,0.01,0.000000,,2013-01-16 05:12:00,
2013-01-15 22:33:00,11.0,8.0,-100.00,North,352,2.0,5.0,88,0.00,,,0.01,0.000000,,2013-01-16 05:33:00,
2013-01-15 22:42:00,11.0,8.0,-100.00,North,352,2.0,5.0,88,0.00,,,0.01,0.000000,,2013-01-16 05:42:00,
2013-01-15 22:53:00,11.0,8.0,-100.00,North,352,2.0,5.0,88,0.00,,,0.01,0.000000,,2013-01-16 05:53:00,
2013-01-15 23:02:00,11.0,8.0,-100.00,North,352,2.0,5.0,88,0.00,,,0.01,0.000000,,2013-01-16 06:02:00,
2013-01-15 23:11:00,11.0,8.0,-100.00,North,352,2.0,5.0,88,0.00,,,0.01,0.000000,,2013-01-16 06:11:00,
2013-01-15 23:33:00,12.0,9.0,-100.00,ENE,78,1.0,4.0,89,0.00,,,0.01,0.000000,,2013-01-16 06:33:00,
2013-01-15 23:43:00,12.0,9.0,-100.00,ENE,78,1.0,4.0,89,0.00,,,0.01,0.000000,,2013-01-16 06:43:00,
2013-01-15 23:53:00,12.0,9.0,-100.00,ENE,78,1.0,4.0,89,0.00,,,0.01,0.000000,,2013-01-16 06:53:00,